Time;durP1;ratioP1;P1;durP2;ratioP2;P2;SDS_P1;SDS_P2;PMS_P1;PMS_P2;Temp;Humidity;BMP_temperature;BMP_pressure;BME280_temperature;BME280_humidity;BME280_pressure;Samples;Min_cycle;Max_cycle;Signal;HPM_P1;HPM_P2
2022/04/23 00:01:34;;;;;;;;;;;;;;;10.64;69.23;98758.16;4947781;29;20452;-83
2022/04/23 00:03:59;;;;;;;;;;;;;;;10.33;70.83;98750.31;4949849;28;19918;-84
2022/04/23 00:06:25;;;;;;;;;;;;;;;10.46;69.71;98754.31;4949611;28;19918;-83
2022/04/23 00:08:50;;;;;;;;;;;;;;;10.91;68.86;98761.75;4949938;28;20384;-83
2022/04/23 00:11:15;;;;;;;;;;;;;;;11.25;67.55;98758.03;4949450;28;20005;-83
2022/04/23 00:13:41;;;;;;;;;;;;;;;11.31;66.91;98767.53;4949342;28;19918;-83
2022/04/23 00:16:06;;;;;;;;;;;;;;;11.38;67.00;98766.41;4949772;28;19961;-82
2022/04/23 00:18:32;;;;;;;;;;;;;;;11.19;66.72;98779.34;4949709;28;19918;-83
2022/04/23 00:20:57;;;;;;;;;;;;;;;10.69;69.29;98779.13;4949251;28;20632;-83
2022/04/23 00:23:23;;;;;;;;;;;;;;;10.99;67.92;98760.66;4947793;29;19965;-83
2022/04/23 00:25:51;;;;;;;;;;;;;;;11.22;67.42;98762.56;4948046;29;19925;-83
2022/04/23 00:28:17;;;;;;;;;;;;;;;11.36;66.69;98755.03;4949268;28;19922;-83
2022/04/23 00:30:44;;;;;;;;;;;;;;;11.28;67.50;98750.00;4949271;28;19985;-83
2022/04/23 00:33:10;;;;;;;;;;;;;;;11.21;66.88;98766.09;4949342;28;19918;-82
2022/04/23 00:35:36;;;;;;;;;;;;;;;10.82;67.75;98769.09;4948221;29;20328;-83
2022/04/23 00:38:02;;;;;;;;;;;;;;;10.70;68.13;98762.41;4949351;28;19933;-84
2022/04/23 00:40:28;;;;;;;;;;;;;;;10.97;67.61;98755.41;4949008;28;20418;-83
2022/04/23 00:42:55;;;;;;;;;;;;;;;10.65;68.86;98761.69;4948690;28;19969;-83
2022/04/23 00:45:27;;;;;;;;;;;;;;;10.50;69.05;98755.97;4949693;29;19969;-83
2022/04/23 00:47:53;;;;;;;;;;;;;;;10.77;68.18;98750.75;4949387;28;19950;-83
2022/04/23 00:50:21;;;;;;;;;;;;;;;10.81;68.41;98744.47;4948751;28;19918;-83
2022/04/23 00:52:48;;;;;;;;;;;;;;;10.70;67.83;98763.25;4949447;28;19922;-83
2022/04/23 00:55:14;;;;;;;;;;;;;;;10.37;68.73;98754.59;4948445;28;19918;-84
2022/04/23 00:57:40;;;;;;;;;;;;;;;10.26;70.33;98761.94;4949193;28;19918;-83
2022/04/23 01:00:09;;;;;;;;;;;;;;;10.50;69.54;98763.88;4949168;28;19919;-83
2022/04/23 01:02:36;;;;;;;;;;;;;;;10.41;69.58;98774.69;4949316;28;20345;-83
2022/04/23 01:05:02;;;;;;;;;;;;;;;10.09;71.60;98757.97;4948986;28;19925;-83
2022/04/23 01:07:28;;;;;;;;;;;;;;;10.03;71.93;98761.63;4949356;28;19921;-83
2022/04/23 01:09:53;;;;;;;;;;;;;;;10.16;70.88;98763.94;4949071;28;20317;-83
2022/04/23 01:12:19;;;;;;;;;;;;;;;10.22;71.55;98758.50;4949057;29;20005;-83
2022/04/23 01:15:00;;;;;;;;;;;;;;;10.32;70.94;98764.38;4949102;28;20293;-83
2022/04/23 01:17:26;;;;;;;;;;;;;;;10.61;70.01;98765.31;4948984;28;19922;-83
2022/04/23 01:19:51;;;;;;;;;;;;;;;10.47;70.45;98761.34;4948833;28;19978;-83
2022/04/23 01:22:17;;;;;;;;;;;;;;;10.23;70.53;98775.19;4948791;28;20005;-83
2022/04/23 01:24:43;;;;;;;;;;;;;;;9.84;72.28;98773.59;4949415;28;20490;-83
2022/04/23 01:27:10;;;;;;;;;;;;;;;9.94;72.67;98774.22;4949021;28;19921;-83
2022/04/23 01:29:36;;;;;;;;;;;;;;;9.82;73.38;98768.38;4949658;28;19918;-83
2022/04/23 01:32:04;;;;;;;;;;;;;;;10.09;72.64;98757.13;4949744;28;19918;-82
2022/04/23 01:34:30;;;;;;;;;;;;;;;10.07;71.82;98746.63;4951472;28;19928;-82
2022/04/23 01:36:55;;;;;;;;;;;;;;;9.88;73.32;98751.53;4950911;28;20312;-83
2022/04/23 01:39:20;;;;;;;;;;;;;;;9.76;73.14;98767.66;4950618;28;19918;-82
2022/04/23 01:41:47;;;;;;;;;;;;;;;9.59;74.10;98776.00;4948463;28;19918;-83
2022/04/23 01:44:12;;;;;;;;;;;;;;;9.91;73.23;98761.97;4949274;28;19918;-82
2022/04/23 01:46:38;;;;;;;;;;;;;;;10.08;72.37;98765.94;4966436;28;19977;-80
2022/04/23 01:49:03;;;;;;;;;;;;;;;10.27;71.48;98771.53;4972541;28;19918;-81
2022/04/23 01:51:28;;;;;;;;;;;;;;;10.40;70.97;98778.22;4973532;28;20390;-81
2022/04/23 01:53:54;;;;;;;;;;;;;;;9.88;71.98;98769.13;4973432;28;19925;-82
2022/04/23 01:56:19;;;;;;;;;;;;;;;9.67;73.74;98774.06;4971574;28;19918;-83
2022/04/23 01:58:44;;;;;;;;;;;;;;;10.14;72.10;98779.78;4971626;28;19992;-82
2022/04/23 02:01:10;;;;;;;;;;;;;;;9.84;72.30;98785.00;4971214;28;19917;-82
2022/04/23 02:03:35;;;;;;;;;;;;;;;9.64;73.18;98785.50;4971381;28;19923;-83
2022/04/23 02:06:01;;;;;;;;;;;;;;;9.67;73.44;98789.84;4971614;28;19965;-83
2022/04/23 02:08:26;;;;;;;;;;;;;;;9.52;73.28;98784.97;4970984;28;19977;-83
2022/04/23 02:10:52;;;;;;;;;;;;;;;9.48;73.50;98786.78;4970831;28;19918;-83
2022/04/23 02:13:17;;;;;;;;;;;;;;;9.77;72.37;98780.78;4971352;28;19926;-83
2022/04/23 02:15:43;;;;;;;;;;;;;;;9.67;72.70;98793.34;4971149;28;20766;-83
2022/04/23 02:18:08;;;;;;;;;;;;;;;9.59;73.46;98790.03;4971027;28;20396;-83
2022/04/23 02:20:34;;;;;;;;;;;;;;;9.63;73.54;98802.22;4970882;28;19928;-82
2022/04/23 02:22:59;;;;;;;;;;;;;;;9.64;73.96;98803.94;4970944;28;20013;-82
2022/04/23 02:25:24;;;;;;;;;;;;;;;9.79;73.13;98802.69;4970765;28;20389;-82
2022/04/23 02:27:50;;;;;;;;;;;;;;;9.75;73.71;98806.31;4970693;28;20393;-82
2022/04/23 02:30:16;;;;;;;;;;;;;;;9.79;73.11;98807.97;4970964;28;20466;-83
2022/04/23 02:32:42;;;;;;;;;;;;;;;9.88;73.61;98813.88;4970756;28;19976;-83
2022/04/23 02:35:08;;;;;;;;;;;;;;;9.92;73.20;98811.13;4970280;28;20029;-82
2022/04/23 02:37:36;;;;;;;;;;;;;;;9.83;73.39;98821.91;4970772;28;20009;-83
2022/04/23 02:40:05;;;;;;;;;;;;;;;9.87;73.76;98820.94;4970770;28;19918;-82
2022/04/23 02:42:30;;;;;;;;;;;;;;;9.70;73.91;98823.13;4970599;28;19980;-83
2022/04/23 02:45:00;;;;;;;;;;;;;;;9.71;73.83;98830.97;4970947;28;20416;-82
2022/04/23 02:47:26;;;;;;;;;;;;;;;9.74;74.40;98833.53;4970405;28;20308;-83
2022/04/23 02:49:51;;;;;;;;;;;;;;;9.83;74.10;98835.94;4970213;28;19917;-83
2022/04/23 02:52:17;;;;;;;;;;;;;;;9.80;74.25;98843.91;4970301;28;20428;-83
2022/04/23 02:54:42;;;;;;;;;;;;;;;9.61;75.43;98854.06;4969943;28;19918;-84
2022/04/23 02:57:07;;;;;;;;;;;;;;;9.59;75.40;98853.25;4970223;28;19914;-83
2022/04/23 02:59:33;;;;;;;;;;;;;;;9.87;73.83;98849.91;4970591;28;19972;-83
2022/04/23 03:01:58;;;;;;;;;;;;;;;9.96;74.00;98848.78;4970574;28;19990;-84
2022/04/23 03:04:23;;;;;;;;;;;;;;;10.16;72.94;98853.53;4970301;28;19949;-84
2022/04/23 03:06:48;;;;;;;;;;;;;;;9.79;73.51;98849.22;4970194;28;19972;-83
2022/04/23 03:09:14;;;;;;;;;;;;;;;9.65;73.58;98850.47;4969899;28;19918;-83
2022/04/23 03:11:39;;;;;;;;;;;;;;;9.56;73.76;98860.31;4969630;28;19918;-83
2022/04/23 03:14:04;;;;;;;;;;;;;;;9.46;75.11;98865.81;4968398;28;19918;-83
2022/04/23 03:16:30;;;;;;;;;;;;;;;9.50;74.46;98864.84;4970148;28;19981;-83
2022/04/23 03:18:58;;;;;;;;;;;;;;;9.33;75.29;98869.66;4969543;28;19968;-83
2022/04/23 03:21:24;;;;;;;;;;;;;;;9.43;74.75;98875.56;4969734;28;19926;-81
2022/04/23 03:23:49;;;;;;;;;;;;;;;9.39;75.03;98879.16;4969695;28;19925;-83
2022/04/23 03:26:14;;;;;;;;;;;;;;;9.39;75.23;98887.06;4969786;28;19918;-82
2022/04/23 03:28:40;;;;;;;;;;;;;;;9.29;75.18;98904.81;4969780;28;19926;-84
2022/04/23 03:31:05;;;;;;;;;;;;;;;9.16;75.41;98895.47;4969282;28;20336;-84
2022/04/23 03:33:30;;;;;;;;;;;;;;;9.26;75.01;98903.13;4969501;28;19922;-83
2022/04/23 03:35:56;;;;;;;;;;;;;;;8.90;75.65;98868.81;4970173;28;20451;-83
2022/04/23 03:38:21;;;;;;;;;;;;;;;9.17;75.76;98902.47;4969629;28;19929;-82
2022/04/23 03:40:53;;;;;;;;;;;;;;;9.14;76.20;98904.28;4967966;28;20388;-84
2022/04/23 03:43:18;;;;;;;;;;;;;;;9.36;74.96;98914.31;4969750;28;19922;-82
2022/04/23 03:45:44;;;;;;;;;;;;;;;9.36;74.88;98913.44;4969606;28;20435;-83
2022/04/23 03:48:09;;;;;;;;;;;;;;;9.34;75.22;98916.09;4969336;28;19914;-82
2022/04/23 03:50:35;;;;;;;;;;;;;;;9.50;75.15;98914.00;4969392;28;20373;-83
2022/04/23 03:53:00;;;;;;;;;;;;;;;9.72;73.67;98895.94;4969375;28;19929;-83
2022/04/23 03:55:26;;;;;;;;;;;;;;;9.84;73.59;98893.00;4969230;28;19913;-82
2022/04/23 03:57:54;;;;;;;;;;;;;;;9.94;73.55;98874.31;4968763;28;19918;-85
2022/04/23 04:00:22;;;;;;;;;;;;;;;10.13;72.23;98875.59;4969437;28;19914;-84
2022/04/23 04:02:49;;;;;;;;;;;;;;;10.25;71.68;98876.16;4967638;28;20356;-83
2022/04/23 04:05:14;;;;;;;;;;;;;;;10.43;70.28;98878.34;4969172;28;19957;-84
2022/04/23 04:07:41;;;;;;;;;;;;;;;10.45;70.72;98879.16;4968310;28;19922;-84
2022/04/23 04:10:08;;;;;;;;;;;;;;;10.70;70.13;98889.88;4968527;28;19987;-84
2022/04/23 04:12:33;;;;;;;;;;;;;;;10.80;69.75;98892.25;4969782;28;19921;-84
2022/04/23 04:14:58;;;;;;;;;;;;;;;11.05;68.76;98898.53;4968717;28;20312;-84
2022/04/23 04:17:25;;;;;;;;;;;;;;;11.15;69.31;98899.13;4966948;28;20392;-84
2022/04/23 04:19:50;;;;;;;;;;;;;;;11.25;69.20;98897.09;4969040;28;19918;-85
2022/04/23 04:22:16;;;;;;;;;;;;;;;11.38;68.83;98889.66;4968586;28;19925;-84
2022/04/23 04:24:41;;;;;;;;;;;;;;;11.45;67.60;98888.56;4968653;28;19918;-84
2022/04/23 04:27:06;;;;;;;;;;;;;;;11.62;67.01;98888.03;4968988;28;19949;-84
2022/04/23 04:29:32;;;;;;;;;;;;;;;11.72;66.78;98885.94;4968691;28;20381;-83
2022/04/23 04:31:57;;;;;;;;;;;;;;;11.92;66.51;98893.22;4968281;28;19918;-85
2022/04/23 04:34:30;;;;;;;;;;;;;;;12.02;66.75;98881.47;4969087;28;20056;-84
2022/04/23 04:37:11;;;;;;;;;;;;;;;11.97;68.04;98881.59;4968401;28;19924;-84
2022/04/23 04:39:37;;;;;;;;;;;;;;;12.34;67.21;98890.03;4968446;28;20455;-84
2022/04/23 04:42:03;;;;;;;;;;;;;;;12.51;66.33;98897.38;4968553;28;19947;-83
2022/04/23 04:44:28;;;;;;;;;;;;;;;12.61;66.44;98890.84;4968658;28;19918;-83
2022/04/23 04:46:53;;;;;;;;;;;;;;;12.47;66.53;98880.75;4968592;28;19976;-83
2022/04/23 04:49:19;;;;;;;;;;;;;;;12.77;65.81;98880.56;4968704;28;19918;-83
2022/04/23 04:51:44;;;;;;;;;;;;;;;12.75;66.18;98866.53;4968748;28;20527;-83
2022/04/23 04:54:09;;;;;;;;;;;;;;;12.84;67.13;98862.69;4968553;28;19922;-83
2022/04/23 04:56:35;;;;;;;;;;;;;;;12.84;68.05;98875.91;4968358;28;20429;-83
2022/04/23 04:59:01;;;;;;;;;;;;;;;13.19;67.55;98871.06;4968350;28;20309;-83
2022/04/23 05:01:26;;;;;;;;;;;;;;;13.58;66.37;98854.56;4968645;28;20361;-83
2022/04/23 05:03:53;;;;;;;;;;;;;;;13.94;66.49;98861.91;4969011;28;19941;-82
2022/04/23 05:06:19;;;;;;;;;;;;;;;14.01;66.07;98870.44;4968313;28;19921;-83
2022/04/23 05:08:44;;;;;;;;;;;;;;;14.31;65.69;98873.59;4968187;28;19918;-83
2022/04/23 05:11:10;;;;;;;;;;;;;;;14.53;64.31;98867.34;4966213;28;19925;-83
2022/04/23 05:13:35;;;;;;;;;;;;;;;14.76;63.81;98884.94;4967899;28;20311;-83
2022/04/23 05:16:01;;;;;;;;;;;;;;;15.02;62.06;98876.63;4968138;28;19918;-84
2022/04/23 05:18:26;;;;;;;;;;;;;;;15.35;60.37;98870.69;4967195;28;20397;-83
2022/04/23 05:20:51;;;;;;;;;;;;;;;15.68;59.66;98869.97;4971566;28;19918;-82
2022/04/23 05:23:17;;;;;;;;;;;;;;;15.82;58.39;98874.66;4971145;28;19924;-84
2022/04/23 05:25:42;;;;;;;;;;;;;;;16.06;58.64;98869.88;4971329;28;19925;-83
2022/04/23 05:28:07;;;;;;;;;;;;;;;16.18;57.42;98865.75;4971458;28;19914;-83
2022/04/23 05:30:35;;;;;;;;;;;;;;;16.13;56.39;98865.13;4971289;28;19918;-84
2022/04/23 05:33:01;;;;;;;;;;;;;;;16.25;56.60;98863.63;4970220;28;20331;-83
2022/04/23 05:35:26;;;;;;;;;;;;;;;16.15;56.70;98865.03;4972273;28;19914;-83
2022/04/23 05:37:51;;;;;;;;;;;;;;;16.11;57.59;98881.16;4971325;28;19914;-83
2022/04/23 05:40:16;;;;;;;;;;;;;;;16.02;58.84;98881.63;4971453;28;19918;-84
2022/04/23 05:42:42;;;;;;;;;;;;;;;15.93;59.85;98892.72;4971177;28;19916;-83
2022/04/23 05:45:07;;;;;;;;;;;;;;;16.03;60.19;98879.81;4971560;28;19925;-83
2022/04/23 05:47:33;;;;;;;;;;;;;;;16.37;58.95;98881.59;4971437;28;19965;-83
2022/04/23 05:49:58;;;;;;;;;;;;;;;16.29;58.52;98894.47;4971835;28;19921;-83
2022/04/23 05:52:23;;;;;;;;;;;;;;;16.17;59.29;98903.91;4969841;28;19925;-83
2022/04/23 05:54:49;;;;;;;;;;;;;;;16.32;58.85;98901.44;4972483;28;20013;-84
2022/04/23 05:57:15;;;;;;;;;;;;;;;16.39;57.87;98897.50;4971675;28;19924;-83
2022/04/23 05:59:40;;;;;;;;;;;;;;;16.24;59.65;98902.69;4971445;28;19972;-84
2022/04/23 06:02:06;;;;;;;;;;;;;;;16.35;57.39;98907.44;4972103;28;20380;-83
2022/04/23 06:04:32;;;;;;;;;;;;;;;16.04;60.20;98913.47;4971757;28;19925;-82
2022/04/23 06:06:58;;;;;;;;;;;;;;;15.87;60.70;98912.50;4971740;28;19953;-86
2022/04/23 06:09:23;;;;;;;;;;;;;;;15.53;63.69;98916.75;4971460;28;19917;-83
2022/04/23 06:11:48;;;;;;;;;;;;;;;15.48;62.88;98924.09;4971562;28;19922;-82
2022/04/23 06:14:14;;;;;;;;;;;;;;;15.59;62.08;98920.94;4972029;28;19925;-83
2022/04/23 06:16:39;;;;;;;;;;;;;;;15.72;60.66;98922.06;4971587;28;20522;-84
2022/04/23 06:19:05;;;;;;;;;;;;;;;15.72;60.81;98919.41;4971555;28;19914;-85
2022/04/23 06:21:30;;;;;;;;;;;;;;;15.76;60.27;98926.28;4971651;28;20416;-85
2022/04/23 06:23:55;;;;;;;;;;;;;;;15.83;60.09;98934.00;4970937;28;19914;-84
2022/04/23 06:26:21;;;;;;;;;;;;;;;16.14;59.90;98924.50;4971258;28;20282;-85
2022/04/23 06:28:46;;;;;;;;;;;;;;;16.52;58.56;98921.72;4972226;28;19945;-84
2022/04/23 06:31:12;;;;;;;;;;;;;;;16.36;58.42;98925.16;4972074;28;20046;-87
2022/04/23 06:33:37;;;;;;;;;;;;;;;16.82;57.76;98932.53;4971657;28;19925;-86
2022/04/23 06:36:02;;;;;;;;;;;;;;;17.36;56.33;98938.56;4971299;28;19918;-86
2022/04/23 06:38:28;;;;;;;;;;;;;;;17.60;54.43;98935.47;4970918;28;19918;-85
2022/04/23 06:40:53;;;;;;;;;;;;;;;17.44;54.34;98926.59;4970847;28;19918;-84
2022/04/23 06:43:19;;;;;;;;;;;;;;;17.29;56.52;98939.81;4970785;28;20373;-84
2022/04/23 06:45:44;;;;;;;;;;;;;;;17.89;56.28;98938.34;4970826;28;19921;-83
2022/04/23 06:48:09;;;;;;;;;;;;;;;17.80;55.13;98945.00;4970826;28;19925;-85
2022/04/23 06:50:36;;;;;;;;;;;;;;;18.26;53.94;98938.88;4970693;28;19973;-81
2022/04/23 06:53:01;;;;;;;;;;;;;;;18.12;54.38;98929.00;4970825;28;20004;-81
2022/04/23 06:55:27;;;;;;;;;;;;;;;18.47;52.31;98935.88;4970372;28;20028;-82
2022/04/23 06:57:53;;;;;;;;;;;;;;;18.75;49.82;98935.94;4970912;28;19925;-82
2022/04/23 07:00:21;;;;;;;;;;;;;;;18.97;51.26;98932.00;4970376;28;19925;-82
2022/04/23 07:02:46;;;;;;;;;;;;;;;18.79;49.97;98928.59;4970707;28;19918;-83
2022/04/23 07:05:11;;;;;;;;;;;;;;;18.61;51.98;98928.75;4969967;28;19925;-82
2022/04/23 07:07:37;;;;;;;;;;;;;;;18.12;52.62;98944.13;4967796;28;20432;-83
2022/04/23 07:10:03;;;;;;;;;;;;;;;17.56;53.71;98954.38;4969863;28;20416;-82
2022/04/23 07:12:28;;;;;;;;;;;;;;;17.73;56.17;98946.28;4970662;28;19914;-81
2022/04/23 07:14:53;;;;;;;;;;;;;;;18.23;52.51;98949.72;4970012;28;19918;-82
2022/04/23 07:17:25;;;;;;;;;;;;;;;17.76;54.29;98956.78;4969816;28;19925;-82
2022/04/23 07:19:53;;;;;;;;;;;;;;;17.95;52.95;98956.66;4969196;28;19922;-83
2022/04/23 07:22:19;;;;;;;;;;;;;;;18.32;51.58;98953.66;4970092;28;19914;-82
2022/04/23 07:24:45;;;;;;;;;;;;;;;18.46;51.25;98968.84;4968172;28;20431;-82
2022/04/23 07:27:11;;;;;;;;;;;;;;;18.99;50.07;98959.47;4968770;28;20008;-82
2022/04/23 07:29:36;;;;;;;;;;;;;;;19.40;49.91;98957.84;4970649;28;19914;-82
2022/04/23 07:32:02;;;;;;;;;;;;;;;18.77;50.12;98955.41;4970014;28;19925;-82
2022/04/23 07:37:31;;;;;;;;;;;;;;;19.85;50.13;98959.41;4968960;28;20431;-83
2022/04/23 07:39:57;;;;;;;;;;;;;;;20.01;49.39;98956.59;4970034;28;19914;-82
2022/04/23 07:42:23;;;;;;;;;;;;;;;20.58;47.14;98957.31;4968967;28;19918;-82
2022/04/23 07:44:48;;;;;;;;;;;;;;;20.97;46.11;98954.69;4970847;28;19918;-82
2022/04/23 07:47:13;;;;;;;;;;;;;;;20.46;45.26;98955.47;4969659;28;20384;-83
2022/04/23 07:49:39;;;;;;;;;;;;;;;20.72;44.82;98949.22;4971407;28;19953;-82
2022/04/23 07:52:04;;;;;;;;;;;;;;;21.13;45.92;98949.97;4970423;28;19914;-83
2022/04/23 07:54:30;;;;;;;;;;;;;;;21.48;42.48;98945.75;4970128;28;20515;-82
2022/04/23 07:56:55;;;;;;;;;;;;;;;21.29;46.06;98952.44;4970253;28;20005;-82
2022/04/23 07:59:22;;;;;;;;;;;;;;;21.25;45.50;98951.78;4969607;28;19929;-83
2022/04/23 08:01:48;;;;;;;;;;;;;;;21.22;44.41;98957.34;4969447;28;20012;-83
2022/04/23 08:04:13;;;;;;;;;;;;;;;21.61;44.22;98960.88;4969009;28;20016;-83
2022/04/23 08:06:38;;;;;;;;;;;;;;;20.78;44.77;98949.75;4969677;28;19934;-83
2022/04/23 08:09:04;;;;;;;;;;;;;;;21.05;47.35;98947.84;4970150;28;19918;-85
2022/04/23 08:11:29;;;;;;;;;;;;;;;20.68;46.36;98954.88;4969663;28;19918;-85
2022/04/23 08:13:56;;;;;;;;;;;;;;;20.67;49.43;98956.72;4970615;28;20411;-83
2022/04/23 08:16:22;;;;;;;;;;;;;;;21.35;45.79;98961.84;4970990;28;19910;-83
2022/04/23 08:18:47;;;;;;;;;;;;;;;21.66;45.00;98963.25;4970216;28;19917;-85
2022/04/23 08:21:13;;;;;;;;;;;;;;;22.09;43.17;98952.03;4971584;28;19922;-85
2022/04/23 08:23:39;;;;;;;;;;;;;;;22.33;43.74;98953.88;4970304;28;20431;-84
2022/04/23 08:26:05;;;;;;;;;;;;;;;21.91;42.57;98962.28;4971499;28;20005;-83
2022/04/23 08:31:15;;;;;;;;;;;;;;;21.54;43.11;98950.72;4971004;28;19924;-84
2022/04/23 08:33:58;;;;;;;;;;;;;;;22.35;45.36;98947.41;4971557;28;20355;-83
2022/04/23 08:36:26;;;;;;;;;;;;;;;22.20;42.08;98947.66;4971118;28;20411;-85
2022/04/23 08:38:53;;;;;;;;;;;;;;;22.02;42.72;98952.59;4970169;28;19914;-83
2022/04/23 08:41:19;;;;;;;;;;;;;;;22.41;41.83;98945.22;4968299;28;19953;-84
2022/04/23 08:43:45;;;;;;;;;;;;;;;22.01;39.80;98938.28;4968977;28;19972;-84
2022/04/23 08:46:11;;;;;;;;;;;;;;;22.02;40.59;98929.28;4970998;28;19936;-82
2022/04/23 08:48:37;;;;;;;;;;;;;;;21.94;40.55;98935.22;4970439;28;19922;-82
2022/04/23 08:51:04;;;;;;;;;;;;;;;21.53;39.56;98936.41;4970412;28;19969;-82
2022/04/23 08:53:43;;;;;;;;;;;;;;;21.31;39.77;98928.19;4972804;28;19918;-82
2022/04/23 08:56:08;;;;;;;;;;;;;;;22.19;40.47;98925.31;4975369;28;19964;-82
2022/04/23 08:58:37;;;;;;;;;;;;;;;22.43;39.86;98922.66;4965743;28;20423;-82
2022/04/23 09:01:03;;;;;;;;;;;;;;;22.91;40.26;98931.53;4966742;28;19918;-86
2022/04/23 09:03:28;;;;;;;;;;;;;;;21.68;38.67;98938.97;4973677;28;20392;-85
2022/04/23 09:05:54;;;;;;;;;;;;;;;21.74;37.90;98927.78;4973283;28;19980;-84
2022/04/23 09:08:19;;;;;;;;;;;;;;;21.14;40.12;98922.19;4971255;28;20020;-83
2022/04/23 09:10:51;;;;;;;;;;;;;;;21.66;41.29;98919.41;4972828;28;19925;-83
2022/04/23 09:13:29;;;;;;;;;;;;;;;21.46;40.58;98921.72;4973279;28;19964;-84
2022/04/23 09:24:19;;;;;;;;;;;;;;;21.42;41.04;98913.00;4972560;28;19924;-82
2022/04/23 09:27:01;;;;;;;;;;;;;;;21.60;39.73;98913.53;4971982;28;20312;-83
2022/04/23 09:29:27;;;;;;;;;;;;;;;22.10;39.92;98910.75;4971310;28;19924;-82
2022/04/23 09:32:07;;;;;;;;;;;;;;;21.75;43.40;98908.88;4953050;28;19919;-84
2022/04/23 09:34:32;;;;;;;;;;;;;;;22.47;41.78;98909.84;4955629;28;19919;-82
2022/04/23 09:37:00;;;;;;;;;;;;;;;22.99;39.81;98902.22;4952272;28;19923;-84
2022/04/23 09:39:34;;;;;;;;;;;;;;;22.33;41.30;98908.19;4954082;28;20061;-83
2022/04/23 09:42:17;;;;;;;;;;;;;;;21.87;37.40;98900.88;4952631;28;20396;-83
2022/04/23 09:44:42;;;;;;;;;;;;;;;22.62;37.20;98899.75;4952426;28;20301;-82
2022/04/23 09:47:08;;;;;;;;;;;;;;;22.70;36.08;98895.47;4955692;28;19938;-83
2022/04/23 09:49:34;;;;;;;;;;;;;;;21.93;38.89;98897.75;4954357;28;19918;-83
2022/04/23 09:52:06;;;;;;;;;;;;;;;22.31;38.74;98894.03;4954213;29;19918;-83
2022/04/23 09:54:32;;;;;;;;;;;;;;;22.81;40.69;98883.03;4955989;28;20191;-82
2022/04/23 09:56:58;;;;;;;;;;;;;;;23.33;37.11;98886.97;4952693;28;20709;-83
2022/04/23 09:59:23;;;;;;;;;;;;;;;23.28;42.26;98886.50;4954041;29;19925;-83
2022/04/23 10:01:50;;;;;;;;;;;;;;;23.03;40.21;98883.03;4954272;28;19936;-82
2022/04/23 10:04:22;;;;;;;;;;;;;;;23.26;39.06;98872.28;4953753;28;19921;-80
2022/04/23 10:06:49;;;;;;;;;;;;;;;23.59;39.13;98870.53;4950308;29;19919;-84
2022/04/23 10:09:17;;;;;;;;;;;;;;;22.78;36.46;98872.50;4952412;28;19914;-84
2022/04/23 10:11:43;;;;;;;;;;;;;;;22.93;35.19;98867.75;4953364;28;19925;-83
2022/04/23 10:14:11;;;;;;;;;;;;;;;22.88;36.07;98868.13;4953411;28;19970;-82
2022/04/23 10:16:38;;;;;;;;;;;;;;;22.38;36.69;98864.88;4954454;28;19925;-83
2022/04/23 10:19:03;;;;;;;;;;;;;;;22.37;38.98;98864.00;4953447;28;19914;-83
2022/04/23 10:21:44;;;;;;;;;;;;;;;22.81;40.57;98859.66;4951545;28;19981;-83
2022/04/23 10:24:15;;;;;;;;;;;;;;;23.34;36.06;98859.09;4951792;28;19925;-84
2022/04/23 10:26:47;;;;;;;;;;;;;;;23.28;33.90;98862.28;4951774;28;19914;-84
2022/04/23 10:29:14;;;;;;;;;;;;;;;23.53;35.28;98857.59;4952145;28;19976;-83
2022/04/23 10:31:41;;;;;;;;;;;;;;;23.71;41.30;98849.81;4949750;29;20341;-83
2022/04/23 10:34:26;;;;;;;;;;;;;;;23.53;36.49;98849.50;4951412;28;20422;-83
2022/04/23 10:37:11;;;;;;;;;;;;;;;23.68;35.69;98855.44;4951364;29;19922;-84
2022/04/23 10:39:37;;;;;;;;;;;;;;;23.63;34.90;98852.28;4951557;29;19925;-85
2022/04/23 10:42:02;;;;;;;;;;;;;;;23.66;35.71;98850.19;4951038;28;19915;-82
2022/04/23 10:44:30;;;;;;;;;;;;;;;23.78;33.96;98837.56;4951377;28;19954;-86
2022/04/23 10:46:58;;;;;;;;;;;;;;;23.65;33.96;98845.81;4951084;28;19914;-85
2022/04/23 10:49:24;;;;;;;;;;;;;;;23.76;34.07;98843.06;4951368;28;19918;-84
2022/04/23 10:51:57;;;;;;;;;;;;;;;23.99;33.79;98839.47;4951257;28;19925;-85
2022/04/23 10:54:40;;;;;;;;;;;;;;;24.08;33.13;98836.88;4951130;28;20015;-84
2022/04/23 10:57:13;;;;;;;;;;;;;;;24.27;35.04;98836.13;4952989;28;20321;-85
2022/04/23 10:59:48;;;;;;;;;;;;;;;24.10;33.96;98839.44;4951012;28;19926;-85
2022/04/23 11:02:19;;;;;;;;;;;;;;;24.22;33.53;98837.50;4951868;28;19924;-86
2022/04/23 11:13:26;;;;;;;;;;;;;;;24.57;32.41;98834.50;4950982;29;19965;-85
2022/04/23 11:16:07;;;;;;;;;;;;;;;24.76;33.86;98835.59;4960394;28;19925;-86
2022/04/23 11:18:33;;;;;;;;;;;;;;;24.59;35.62;98835.25;4970129;28;20040;-83
2022/04/23 11:21:20;;;;;;;;;;;;;;;24.41;33.81;98829.56;4969747;28;20355;-84
2022/04/23 11:23:47;;;;;;;;;;;;;;;24.35;35.31;98832.78;4963490;28;19922;-85
2022/04/23 11:26:13;;;;;;;;;;;;;;;24.43;35.75;98830.28;4969680;28;19957;-84
2022/04/23 11:28:42;;;;;;;;;;;;;;;24.58;34.47;98827.28;4969200;28;19918;-85
2022/04/23 11:31:08;;;;;;;;;;;;;;;24.88;34.86;98830.97;4969639;28;20456;-85
2022/04/23 11:33:34;;;;;;;;;;;;;;;25.05;34.75;98835.72;4956529;28;19929;-84
2022/04/23 11:36:00;;;;;;;;;;;;;;;24.75;33.67;98833.91;4950281;28;19918;-85
2022/04/23 11:38:27;;;;;;;;;;;;;;;24.41;32.82;98832.25;4948285;29;20305;-84
2022/04/23 11:40:52;;;;;;;;;;;;;;;24.08;33.41;98836.88;4949828;28;19918;-85
2022/04/23 11:43:30;;;;;;;;;;;;;;;24.24;33.50;98836.41;4950453;28;19964;-84
2022/04/23 11:46:00;;;;;;;;;;;;;;;24.29;36.83;98830.63;4950057;28;19922;-84
2022/04/23 11:48:25;;;;;;;;;;;;;;;24.59;34.99;98827.16;4950739;28;19985;-87
2022/04/23 11:50:51;;;;;;;;;;;;;;;24.98;36.23;98829.19;4950354;28;19967;-86
2022/04/23 11:53:16;;;;;;;;;;;;;;;25.20;35.87;98837.06;4953116;28;19940;-86
2022/04/23 11:55:41;;;;;;;;;;;;;;;25.20;34.08;98836.22;4968018;28;19925;-85
2022/04/23 11:58:07;;;;;;;;;;;;;;;25.24;36.07;98834.09;4968917;28;19925;-84
2022/04/23 12:00:33;;;;;;;;;;;;;;;25.01;33.16;98829.75;4967413;28;19924;-86
2022/04/23 12:02:59;;;;;;;;;;;;;;;25.20;33.86;98826.25;4969188;28;19918;-84
2022/04/23 12:05:25;;;;;;;;;;;;;;;25.09;32.66;98818.28;4968901;28;20532;-84
2022/04/23 12:07:51;;;;;;;;;;;;;;;24.90;31.88;98826.28;4968729;28;20448;-83
2022/04/23 12:10:21;;;;;;;;;;;;;;;24.91;32.98;98828.84;4968813;28;20041;-83
2022/04/23 12:12:47;;;;;;;;;;;;;;;24.80;32.07;98821.72;4968226;28;19918;-84
2022/04/23 12:15:12;;;;;;;;;;;;;;;24.86;31.52;98825.72;4960021;28;19926;-85
2022/04/23 12:17:51;;;;;;;;;;;;;;;25.23;34.67;98817.03;4952209;28;20377;-85
2022/04/23 12:20:19;;;;;;;;;;;;;;;25.33;30.24;98806.31;4949405;28;19926;-85
2022/04/23 12:23:00;;;;;;;;;;;;;;;25.34;32.08;98808.00;4949195;28;19942;-85
2022/04/23 12:25:27;;;;;;;;;;;;;;;25.63;28.86;98805.34;4947938;29;20317;-84
2022/04/23 12:27:52;;;;;;;;;;;;;;;25.93;28.54;98800.81;4949487;28;19918;-84
2022/04/23 12:41:22;;;;;;;;;;;;;;;26.05;27.71;98793.44;4968370;28;20407;-82
2022/04/23 12:43:47;;;;;;;;;;;;;;;26.09;30.13;98786.78;4968606;28;19918;-82
2022/04/23 12:46:13;;;;;;;;;;;;;;;26.13;29.56;98790.88;4966826;28;20008;-83
2022/04/23 12:48:58;;;;;;;;;;;;;;;26.17;30.38;98783.34;4968309;28;19960;-84
2022/04/23 12:51:24;;;;;;;;;;;;;;;26.13;30.32;98787.31;4957274;28;19922;-86
2022/04/23 12:53:49;;;;;;;;;;;;;;;26.04;32.01;98789.91;4959386;28;19984;-86
2022/04/23 12:56:16;;;;;;;;;;;;;;;26.03;31.48;98777.38;4965832;28;19918;-85
2022/04/23 12:58:41;;;;;;;;;;;;;;;26.16;28.04;98782.47;4968802;28;19918;-85
2022/04/23 13:01:08;;;;;;;;;;;;;;;26.38;28.58;98772.31;4961474;28;20012;-83
2022/04/23 13:03:36;;;;;;;;;;;;;;;26.43;27.71;98779.00;4958734;28;19918;-82
2022/04/23 13:06:03;;;;;;;;;;;;;;;26.03;28.17;98769.28;4961316;28;19957;-83
2022/04/23 13:11:24;;;;;;;;;;;;;;;25.67;31.50;98774.38;4948837;29;20452;-83
2022/04/23 13:13:50;;;;;;;;;;;;;;;25.73;31.65;98772.94;4949506;28;19919;-82
2022/04/23 13:16:15;;;;;;;;;;;;;;;25.66;30.68;98771.84;4949009;28;20305;-83
2022/04/23 13:18:40;;;;;;;;;;;;;;;25.83;31.55;98765.72;4949257;28;19926;-82
2022/04/23 13:21:07;;;;;;;;;;;;;;;26.12;30.61;98756.75;4948813;28;19977;-82
2022/04/23 13:23:33;;;;;;;;;;;;;;;26.18;30.55;98761.59;4948842;28;19918;-83